sensor_id;sensor_type;location;lat;lon;timestamp;temperature;humidity
35563;DHT22;21665;40.108;18.302;2023-04-12T00:00:06;7.70;99.90
35563;DHT22;21665;40.108;18.302;2023-04-12T00:02:37;7.80;99.90
35563;DHT22;21665;40.108;18.302;2023-04-12T00:05:04;7.90;99.90
35563;DHT22;21665;40.108;18.302;2023-04-12T00:07:30;8.10;99.90
35563;DHT22;21665;40.108;18.302;2023-04-12T00:09:57;8.10;99.90
35563;DHT22;21665;40.108;18.302;2023-04-12T00:12:24;8.20;99.90
35563;DHT22;21665;40.108;18.302;2023-04-12T00:14:50;8.30;99.90
35563;DHT22;21665;40.108;18.302;2023-04-12T00:17:17;8.30;99.90
35563;DHT22;21665;40.108;18.302;2023-04-12T00:19:44;8.30;99.90
35563;DHT22;21665;40.108;18.302;2023-04-12T00:22:12;8.30;99.90
35563;DHT22;21665;40.108;18.302;2023-04-12T00:24:39;8.30;99.90
35563;DHT22;21665;40.108;18.302;2023-04-12T00:27:07;8.30;99.90
35563;DHT22;21665;40.108;18.302;2023-04-12T00:29:35;8.30;99.90
35563;DHT22;21665;40.108;18.302;2023-04-12T00:32:01;8.30;99.90
35563;DHT22;21665;40.108;18.302;2023-04-12T00:34:30;8.30;99.90
35563;DHT22;21665;40.108;18.302;2023-04-12T00:36:57;8.30;99.90
35563;DHT22;21665;40.108;18.302;2023-04-12T00:39:26;8.30;99.90
35563;DHT22;21665;40.108;18.302;2023-04-12T00:41:55;8.30;99.90
35563;DHT22;21665;40.108;18.302;2023-04-12T00:44:22;8.30;99.90
35563;DHT22;21665;40.108;18.302;2023-04-12T00:46:49;8.20;99.90
35563;DHT22;21665;40.108;18.302;2023-04-12T00:49:16;8.20;99.90
35563;DHT22;21665;40.108;18.302;2023-04-12T00:51:43;8.20;99.90
35563;DHT22;21665;40.108;18.302;2023-04-12T00:54:11;8.20;99.90
35563;DHT22;21665;40.108;18.302;2023-04-12T00:56:39;8.10;99.90
35563;DHT22;21665;40.108;18.302;2023-04-12T00:59:06;8.20;99.90
35563;DHT22;21665;40.108;18.302;2023-04-12T01:01:33;8.20;99.90
35563;DHT22;21665;40.108;18.302;2023-04-12T01:04:00;8.20;99.90
35563;DHT22;21665;40.108;18.302;2023-04-12T01:06:45;8.20;99.90
35563;DHT22;21665;40.108;18.302;2023-04-12T01:12:14;8.20;99.90
35563;DHT22;21665;40.108;18.302;2023-04-12T01:14:53;8.20;99.90
35563;DHT22;21665;40.108;18.302;2023-04-12T01:17:27;8.20;99.90
35563;DHT22;21665;40.108;18.302;2023-04-12T01:20:13;8.20;99.90
35563;DHT22;21665;40.108;18.302;2023-04-12T01:28:33;8.30;99.90
35563;DHT22;21665;40.108;18.302;2023-04-12T01:31:03;8.30;99.90
35563;DHT22;21665;40.108;18.302;2023-04-12T01:33:33;8.30;99.90
35563;DHT22;21665;40.108;18.302;2023-04-12T01:36:07;8.30;99.90
35563;DHT22;21665;40.108;18.302;2023-04-12T01:38:34;8.30;99.90
35563;DHT22;21665;40.108;18.302;2023-04-12T01:41:01;8.30;99.90
35563;DHT22;21665;40.108;18.302;2023-04-12T01:43:28;8.30;99.90
35563;DHT22;21665;40.108;18.302;2023-04-12T01:45:58;8.40;99.90
35563;DHT22;21665;40.108;18.302;2023-04-12T02:03:32;8.90;99.90
35563;DHT22;21665;40.108;18.302;2023-04-12T02:06:01;9.00;99.90
35563;DHT22;21665;40.108;18.302;2023-04-12T02:08:29;9.00;99.90
35563;DHT22;21665;40.108;18.302;2023-04-12T02:10:59;9.00;99.90
35563;DHT22;21665;40.108;18.302;2023-04-12T02:13:26;9.00;99.90
35563;DHT22;21665;40.108;18.302;2023-04-12T02:15:53;9.00;99.90
35563;DHT22;21665;40.108;18.302;2023-04-12T02:18:20;9.10;99.90
35563;DHT22;21665;40.108;18.302;2023-04-12T02:20:48;9.10;99.90
35563;DHT22;21665;40.108;18.302;2023-04-12T02:23:15;9.10;99.90
35563;DHT22;21665;40.108;18.302;2023-04-12T02:25:43;9.10;99.90
35563;DHT22;21665;40.108;18.302;2023-04-12T02:28:13;9.10;99.90
35563;DHT22;21665;40.108;18.302;2023-04-12T02:30:44;9.20;99.90
35563;DHT22;21665;40.108;18.302;2023-04-12T02:33:11;9.20;99.90
35563;DHT22;21665;40.108;18.302;2023-04-12T02:35:41;9.20;99.90
35563;DHT22;21665;40.108;18.302;2023-04-12T02:38:12;9.20;99.90
35563;DHT22;21665;40.108;18.302;2023-04-12T02:40:41;9.20;99.90
35563;DHT22;21665;40.108;18.302;2023-04-12T02:43:11;9.20;99.90
35563;DHT22;21665;40.108;18.302;2023-04-12T02:45:42;9.20;99.90
35563;DHT22;21665;40.108;18.302;2023-04-12T02:48:09;9.10;99.90
35563;DHT22;21665;40.108;18.302;2023-04-12T02:50:37;9.10;99.90
35563;DHT22;21665;40.108;18.302;2023-04-12T02:53:18;9.10;99.90
35563;DHT22;21665;40.108;18.302;2023-04-12T02:55:53;9.10;99.90
35563;DHT22;21665;40.108;18.302;2023-04-12T02:58:23;9.10;99.90
35563;DHT22;21665;40.108;18.302;2023-04-12T03:00:53;9.00;99.90
35563;DHT22;21665;40.108;18.302;2023-04-12T03:03:26;9.00;99.90
35563;DHT22;21665;40.108;18.302;2023-04-12T03:05:58;8.90;99.90
35563;DHT22;21665;40.108;18.302;2023-04-12T03:08:26;8.90;99.90
35563;DHT22;21665;40.108;18.302;2023-04-12T03:10:57;8.90;99.90
35563;DHT22;21665;40.108;18.302;2023-04-12T03:13:25;8.90;99.90
35563;DHT22;21665;40.108;18.302;2023-04-12T03:15:56;8.80;99.90
35563;DHT22;21665;40.108;18.302;2023-04-12T03:18:31;8.80;99.90
35563;DHT22;21665;40.108;18.302;2023-04-12T03:20:58;8.80;99.90
35563;DHT22;21665;40.108;18.302;2023-04-12T03:23:28;8.80;99.90
35563;DHT22;21665;40.108;18.302;2023-04-12T03:26:08;8.70;99.90
35563;DHT22;21665;40.108;18.302;2023-04-12T03:28:35;8.70;99.90
35563;DHT22;21665;40.108;18.302;2023-04-12T03:31:07;8.70;99.90
35563;DHT22;21665;40.108;18.302;2023-04-12T03:33:56;8.70;99.90
35563;DHT22;21665;40.108;18.302;2023-04-12T03:36:24;8.70;99.90
35563;DHT22;21665;40.108;18.302;2023-04-12T03:39:01;8.70;99.90
35563;DHT22;21665;40.108;18.302;2023-04-12T03:41:31;8.70;99.90
35563;DHT22;21665;40.108;18.302;2023-04-12T03:44:01;8.70;99.90
35563;DHT22;21665;40.108;18.302;2023-04-12T03:46:31;8.70;99.90
35563;DHT22;21665;40.108;18.302;2023-04-12T03:49:02;8.70;99.90
35563;DHT22;21665;40.108;18.302;2023-04-12T03:51:31;8.70;99.90
35563;DHT22;21665;40.108;18.302;2023-04-12T03:54:01;8.70;99.90
35563;DHT22;21665;40.108;18.302;2023-04-12T03:56:39;8.60;99.90
35563;DHT22;21665;40.108;18.302;2023-04-12T03:59:11;8.60;99.90
35563;DHT22;21665;40.108;18.302;2023-04-12T04:01:44;8.60;99.90
35563;DHT22;21665;40.108;18.302;2023-04-12T04:04:11;8.50;99.90
35563;DHT22;21665;40.108;18.302;2023-04-12T04:06:39;8.60;99.90
35563;DHT22;21665;40.108;18.302;2023-04-12T04:09:06;8.60;99.90
35563;DHT22;21665;40.108;18.302;2023-04-12T04:11:36;8.60;99.90
35563;DHT22;21665;40.108;18.302;2023-04-12T04:14:06;8.60;99.90
35563;DHT22;21665;40.108;18.302;2023-04-12T04:16:34;8.60;99.90
35563;DHT22;21665;40.108;18.302;2023-04-12T04:19:03;8.60;99.90
35563;DHT22;21665;40.108;18.302;2023-04-12T04:21:31;8.70;99.90
35563;DHT22;21665;40.108;18.302;2023-04-12T04:24:04;8.70;99.90
35563;DHT22;21665;40.108;18.302;2023-04-12T04:26:37;8.80;99.90
35563;DHT22;21665;40.108;18.302;2023-04-12T04:29:10;8.80;99.90
35563;DHT22;21665;40.108;18.302;2023-04-12T04:31:39;8.80;99.90
35563;DHT22;21665;40.108;18.302;2023-04-12T04:34:07;8.80;99.90
35563;DHT22;21665;40.108;18.302;2023-04-12T04:36:40;8.80;99.90
35563;DHT22;21665;40.108;18.302;2023-04-12T04:39:06;8.80;99.90
35563;DHT22;21665;40.108;18.302;2023-04-12T04:41:42;8.90;99.90
35563;DHT22;21665;40.108;18.302;2023-04-12T04:44:16;8.90;99.90
35563;DHT22;21665;40.108;18.302;2023-04-12T04:46:52;9.00;99.90
35563;DHT22;21665;40.108;18.302;2023-04-12T04:49:19;9.00;99.90
35563;DHT22;21665;40.108;18.302;2023-04-12T04:51:46;9.10;99.90
35563;DHT22;21665;40.108;18.302;2023-04-12T04:54:14;9.10;99.90
35563;DHT22;21665;40.108;18.302;2023-04-12T04:56:41;9.30;99.90
35563;DHT22;21665;40.108;18.302;2023-04-12T04:59:11;9.40;99.90
35563;DHT22;21665;40.108;18.302;2023-04-12T05:01:38;9.70;99.90
35563;DHT22;21665;40.108;18.302;2023-04-12T05:04:06;10.00;99.90
35563;DHT22;21665;40.108;18.302;2023-04-12T05:06:33;10.70;99.90
35563;DHT22;21665;40.108;18.302;2023-04-12T05:09:01;11.50;99.90
35563;DHT22;21665;40.108;18.302;2023-04-12T05:11:31;12.10;99.90
35563;DHT22;21665;40.108;18.302;2023-04-12T05:13:58;13.00;99.90
35563;DHT22;21665;40.108;18.302;2023-04-12T08:54:40;20.70;99.90
35563;DHT22;21665;40.108;18.302;2023-04-12T09:00:06;20.80;99.90
35563;DHT22;21665;40.108;18.302;2023-04-12T09:02:35;20.90;99.90
35563;DHT22;21665;40.108;18.302;2023-04-12T09:05:04;20.70;99.90
35563;DHT22;21665;40.108;18.302;2023-04-12T09:07:32;20.50;99.90
35563;DHT22;21665;40.108;18.302;2023-04-12T09:09:58;20.70;99.90
35563;DHT22;21665;40.108;18.302;2023-04-12T09:12:25;21.00;99.90
35563;DHT22;21665;40.108;18.302;2023-04-12T09:18:09;21.10;99.90
35563;DHT22;21665;40.108;18.302;2023-04-12T09:20:37;20.70;99.90
35563;DHT22;21665;40.108;18.302;2023-04-12T09:23:29;20.40;99.90
35563;DHT22;21665;40.108;18.302;2023-04-12T09:25:56;19.80;99.90
35563;DHT22;21665;40.108;18.302;2023-04-12T09:28:38;19.90;99.90
35563;DHT22;21665;40.108;18.302;2023-04-12T09:31:22;20.00;99.90
35563;DHT22;21665;40.108;18.302;2023-04-12T09:33:50;20.20;99.90
35563;DHT22;21665;40.108;18.302;2023-04-12T09:36:18;20.20;99.90
35563;DHT22;21665;40.108;18.302;2023-04-12T09:38:59;20.40;99.90
35563;DHT22;21665;40.108;18.302;2023-04-12T09:46:11;20.90;99.90
35563;DHT22;21665;40.108;18.302;2023-04-12T09:48:59;21.30;99.90
35563;DHT22;21665;40.108;18.302;2023-04-12T09:51:49;21.40;99.90
35563;DHT22;21665;40.108;18.302;2023-04-12T09:54:16;21.40;99.90
35563;DHT22;21665;40.108;18.302;2023-04-12T09:56:43;21.10;99.90
35563;DHT22;21665;40.108;18.302;2023-04-12T09:59:11;21.10;99.90
35563;DHT22;21665;40.108;18.302;2023-04-12T10:01:41;21.00;99.90
35563;DHT22;21665;40.108;18.302;2023-04-12T10:04:08;20.70;99.90
35563;DHT22;21665;40.108;18.302;2023-04-12T10:06:35;20.90;99.90
35563;DHT22;21665;40.108;18.302;2023-04-12T10:09:06;21.00;99.90
35563;DHT22;21665;40.108;18.302;2023-04-12T10:11:33;21.30;99.90
35563;DHT22;21665;40.108;18.302;2023-04-12T10:14:05;20.80;99.90
35563;DHT22;21665;40.108;18.302;2023-04-12T10:16:33;20.40;99.90
35563;DHT22;21665;40.108;18.302;2023-04-12T10:19:03;20.60;99.90
35563;DHT22;21665;40.108;18.302;2023-04-12T10:21:30;20.90;99.90
35563;DHT22;21665;40.108;18.302;2023-04-12T10:23:57;20.90;99.90
35563;DHT22;21665;40.108;18.302;2023-04-12T10:26:26;21.00;99.90
35563;DHT22;21665;40.108;18.302;2023-04-12T10:29:21;21.20;99.90
35563;DHT22;21665;40.108;18.302;2023-04-12T10:31:49;20.90;99.90
35563;DHT22;21665;40.108;18.302;2023-04-12T10:34:16;20.50;99.90
35563;DHT22;21665;40.108;18.302;2023-04-12T10:49:24;20.60;99.90
35563;DHT22;21665;40.108;18.302;2023-04-12T11:17:22;21.00;99.90
35563;DHT22;21665;40.108;18.302;2023-04-12T11:20:00;20.90;99.90
35563;DHT22;21665;40.108;18.302;2023-04-12T11:22:29;21.10;99.90
35563;DHT22;21665;40.108;18.302;2023-04-12T11:24:58;20.80;99.90
35563;DHT22;21665;40.108;18.302;2023-04-12T11:27:26;20.80;99.90
35563;DHT22;21665;40.108;18.302;2023-04-12T11:29:55;20.90;99.90
35563;DHT22;21665;40.108;18.302;2023-04-12T11:32:28;21.20;99.90
35563;DHT22;21665;40.108;18.302;2023-04-12T11:34:56;21.40;99.90
35563;DHT22;21665;40.108;18.302;2023-04-12T11:37:23;21.40;99.90
35563;DHT22;21665;40.108;18.302;2023-04-12T11:39:55;21.50;99.90
35563;DHT22;21665;40.108;18.302;2023-04-12T11:42:25;21.50;99.90
35563;DHT22;21665;40.108;18.302;2023-04-12T11:44:51;21.60;99.90
35563;DHT22;21665;40.108;18.302;2023-04-12T11:47:20;21.30;99.90
35563;DHT22;21665;40.108;18.302;2023-04-12T11:49:57;21.40;99.90
35563;DHT22;21665;40.108;18.302;2023-04-12T11:52:28;21.20;99.90
35563;DHT22;21665;40.108;18.302;2023-04-12T11:55:01;21.10;99.90
35563;DHT22;21665;40.108;18.302;2023-04-12T11:57:30;21.00;99.90
35563;DHT22;21665;40.108;18.302;2023-04-12T12:00:00;21.10;99.90
35563;DHT22;21665;40.108;18.302;2023-04-12T12:02:38;21.40;99.90
35563;DHT22;21665;40.108;18.302;2023-04-12T12:05:07;21.50;99.90
35563;DHT22;21665;40.108;18.302;2023-04-12T12:07:34;21.50;99.90
35563;DHT22;21665;40.108;18.302;2023-04-12T12:10:05;21.40;99.90
35563;DHT22;21665;40.108;18.302;2023-04-12T12:12:44;21.30;99.90
35563;DHT22;21665;40.108;18.302;2023-04-12T12:15:16;21.20;99.90
35563;DHT22;21665;40.108;18.302;2023-04-12T12:17:45;21.10;99.90
35563;DHT22;21665;40.108;18.302;2023-04-12T12:20:20;21.20;99.90
35563;DHT22;21665;40.108;18.302;2023-04-12T12:22:54;21.20;99.90
35563;DHT22;21665;40.108;18.302;2023-04-12T12:25:59;21.20;99.90
35563;DHT22;21665;40.108;18.302;2023-04-12T13:33:53;22.20;99.90
35563;DHT22;21665;40.108;18.302;2023-04-12T13:38:56;22.20;99.90
35563;DHT22;21665;40.108;18.302;2023-04-12T15:00:14;18.30;99.90
35563;DHT22;21665;40.108;18.302;2023-04-12T15:06:30;18.70;99.90
35563;DHT22;21665;40.108;18.302;2023-04-12T15:09:42;18.70;99.90
35563;DHT22;21665;40.108;18.302;2023-04-12T15:33:04;18.00;99.90
35563;DHT22;21665;40.108;18.302;2023-04-12T15:36:13;17.70;99.90
35563;DHT22;21665;40.108;18.302;2023-04-12T15:39:19;17.60;99.90
35563;DHT22;21665;40.108;18.302;2023-04-12T16:01:52;17.40;99.90
35563;DHT22;21665;40.108;18.302;2023-04-12T16:09:18;17.30;99.90
35563;DHT22;21665;40.108;18.302;2023-04-12T16:12:24;17.20;99.90
35563;DHT22;21665;40.108;18.302;2023-04-12T16:15:39;17.00;99.90
35563;DHT22;21665;40.108;18.302;2023-04-12T16:32:08;16.80;99.90
35563;DHT22;21665;40.108;18.302;2023-04-12T16:46:52;16.40;99.90
35563;DHT22;21665;40.108;18.302;2023-04-12T16:49:25;16.30;99.90
35563;DHT22;21665;40.108;18.302;2023-04-12T16:52:17;16.30;99.90
35563;DHT22;21665;40.108;18.302;2023-04-12T16:54:48;16.20;99.90
35563;DHT22;21665;40.108;18.302;2023-04-12T17:10:27;15.80;99.90
35563;DHT22;21665;40.108;18.302;2023-04-12T17:13:16;15.70;99.90
35563;DHT22;21665;40.108;18.302;2023-04-12T17:24:24;15.30;99.90
35563;DHT22;21665;40.108;18.302;2023-04-12T17:42:45;14.70;99.90
35563;DHT22;21665;40.108;18.302;2023-04-12T17:45:41;14.70;99.90
35563;DHT22;21665;40.108;18.302;2023-04-12T17:48:08;14.50;99.90
35563;DHT22;21665;40.108;18.302;2023-04-12T17:50:40;14.40;99.90
35563;DHT22;21665;40.108;18.302;2023-04-12T17:53:13;14.40;99.90
35563;DHT22;21665;40.108;18.302;2023-04-12T17:55:45;14.30;99.90
35563;DHT22;21665;40.108;18.302;2023-04-12T17:59:01;14.30;99.90
35563;DHT22;21665;40.108;18.302;2023-04-12T18:01:42;14.30;99.90
35563;DHT22;21665;40.108;18.302;2023-04-12T18:04:35;14.20;99.90
35563;DHT22;21665;40.108;18.302;2023-04-12T18:07:32;14.10;99.90
35563;DHT22;21665;40.108;18.302;2023-04-12T18:18:05;13.80;99.90
35563;DHT22;21665;40.108;18.302;2023-04-12T18:20:33;13.70;99.90
35563;DHT22;21665;40.108;18.302;2023-04-12T18:23:00;13.60;99.90
35563;DHT22;21665;40.108;18.302;2023-04-12T18:25:26;13.60;99.90
35563;DHT22;21665;40.108;18.302;2023-04-12T18:27:53;13.50;99.90
35563;DHT22;21665;40.108;18.302;2023-04-12T18:30:20;13.60;99.90
35563;DHT22;21665;40.108;18.302;2023-04-12T18:32:47;13.50;99.90
35563;DHT22;21665;40.108;18.302;2023-04-12T18:35:14;13.50;99.90
35563;DHT22;21665;40.108;18.302;2023-04-12T18:37:40;13.40;99.90
35563;DHT22;21665;40.108;18.302;2023-04-12T18:40:09;13.40;99.90
35563;DHT22;21665;40.108;18.302;2023-04-12T18:42:36;13.30;99.90
35563;DHT22;21665;40.108;18.302;2023-04-12T18:45:03;13.20;99.90
35563;DHT22;21665;40.108;18.302;2023-04-12T18:47:30;13.10;99.90
35563;DHT22;21665;40.108;18.302;2023-04-12T18:49:56;13.00;99.90
35563;DHT22;21665;40.108;18.302;2023-04-12T18:52:23;13.00;99.90
35563;DHT22;21665;40.108;18.302;2023-04-12T18:54:50;12.90;99.90
35563;DHT22;21665;40.108;18.302;2023-04-12T18:57:16;12.90;99.90
35563;DHT22;21665;40.108;18.302;2023-04-12T18:59:43;12.80;99.90
35563;DHT22;21665;40.108;18.302;2023-04-12T19:02:13;12.70;99.90
35563;DHT22;21665;40.108;18.302;2023-04-12T19:04:40;12.60;99.90
35563;DHT22;21665;40.108;18.302;2023-04-12T19:07:07;12.70;99.90
35563;DHT22;21665;40.108;18.302;2023-04-12T19:09:35;12.70;99.90
35563;DHT22;21665;40.108;18.302;2023-04-12T19:12:02;12.60;99.90
35563;DHT22;21665;40.108;18.302;2023-04-12T19:14:31;12.60;99.90
35563;DHT22;21665;40.108;18.302;2023-04-12T19:17:02;12.60;99.90
35563;DHT22;21665;40.108;18.302;2023-04-12T19:19:55;12.70;99.90
35563;DHT22;21665;40.108;18.302;2023-04-12T19:22:26;12.80;99.90
35563;DHT22;21665;40.108;18.302;2023-04-12T19:24:54;12.80;99.90
35563;DHT22;21665;40.108;18.302;2023-04-12T19:27:22;12.80;99.90
35563;DHT22;21665;40.108;18.302;2023-04-12T19:29:57;12.80;99.90
35563;DHT22;21665;40.108;18.302;2023-04-12T19:32:24;12.80;99.90
35563;DHT22;21665;40.108;18.302;2023-04-12T19:34:59;12.90;99.90
35563;DHT22;21665;40.108;18.302;2023-04-12T19:37:27;12.80;99.90
35563;DHT22;21665;40.108;18.302;2023-04-12T19:40:00;12.90;99.90
35563;DHT22;21665;40.108;18.302;2023-04-12T19:42:28;12.90;99.90
35563;DHT22;21665;40.108;18.302;2023-04-12T19:44:54;13.00;99.90
35563;DHT22;21665;40.108;18.302;2023-04-12T19:47:22;13.00;99.90
35563;DHT22;21665;40.108;18.302;2023-04-12T19:49:51;12.90;99.90
35563;DHT22;21665;40.108;18.302;2023-04-12T19:52:17;12.70;99.90
35563;DHT22;21665;40.108;18.302;2023-04-12T19:54:48;12.60;99.90
35563;DHT22;21665;40.108;18.302;2023-04-12T19:57:17;12.50;99.90
35563;DHT22;21665;40.108;18.302;2023-04-12T19:59:54;12.40;99.90
35563;DHT22;21665;40.108;18.302;2023-04-12T20:02:24;12.30;99.90
35563;DHT22;21665;40.108;18.302;2023-04-12T20:04:53;12.30;99.90
35563;DHT22;21665;40.108;18.302;2023-04-12T20:07:32;12.20;99.90
35563;DHT22;21665;40.108;18.302;2023-04-12T20:09:59;12.00;99.90
35563;DHT22;21665;40.108;18.302;2023-04-12T20:12:30;12.00;99.90
35563;DHT22;21665;40.108;18.302;2023-04-12T20:15:05;11.90;99.90
35563;DHT22;21665;40.108;18.302;2023-04-12T20:17:51;11.80;99.90
35563;DHT22;21665;40.108;18.302;2023-04-12T20:20:20;11.80;99.90
35563;DHT22;21665;40.108;18.302;2023-04-12T20:22:47;11.80;99.90
35563;DHT22;21665;40.108;18.302;2023-04-12T20:25:17;11.80;99.90
35563;DHT22;21665;40.108;18.302;2023-04-12T20:27:47;11.70;99.90
35563;DHT22;21665;40.108;18.302;2023-04-12T20:30:18;11.60;99.90
35563;DHT22;21665;40.108;18.302;2023-04-12T20:32:48;11.60;99.90
35563;DHT22;21665;40.108;18.302;2023-04-12T20:35:20;11.60;99.90
35563;DHT22;21665;40.108;18.302;2023-04-12T20:37:49;11.50;99.90
35563;DHT22;21665;40.108;18.302;2023-04-12T20:40:21;11.40;99.90
35563;DHT22;21665;40.108;18.302;2023-04-12T20:42:54;11.30;99.90
35563;DHT22;21665;40.108;18.302;2023-04-12T20:45:21;11.30;99.90
35563;DHT22;21665;40.108;18.302;2023-04-12T20:47:50;11.30;99.90
35563;DHT22;21665;40.108;18.302;2023-04-12T20:50:17;11.30;99.90
35563;DHT22;21665;40.108;18.302;2023-04-12T20:52:48;11.30;99.90
35563;DHT22;21665;40.108;18.302;2023-04-12T20:55:16;11.30;99.90
35563;DHT22;21665;40.108;18.302;2023-04-12T20:57:43;11.30;99.90
35563;DHT22;21665;40.108;18.302;2023-04-12T21:00:11;11.30;99.90
35563;DHT22;21665;40.108;18.302;2023-04-12T21:02:44;11.20;99.90
35563;DHT22;21665;40.108;18.302;2023-04-12T21:05:12;11.20;99.90
35563;DHT22;21665;40.108;18.302;2023-04-12T21:07:39;11.20;99.90
35563;DHT22;21665;40.108;18.302;2023-04-12T21:10:10;11.20;99.90
35563;DHT22;21665;40.108;18.302;2023-04-12T21:12:41;11.20;99.90
35563;DHT22;21665;40.108;18.302;2023-04-12T21:15:10;11.10;99.90
35563;DHT22;21665;40.108;18.302;2023-04-12T21:17:37;11.10;99.90
35563;DHT22;21665;40.108;18.302;2023-04-12T21:20:06;11.00;99.90
35563;DHT22;21665;40.108;18.302;2023-04-12T21:22:42;11.00;99.90
35563;DHT22;21665;40.108;18.302;2023-04-12T21:25:20;10.90;99.90
35563;DHT22;21665;40.108;18.302;2023-04-12T21:27:47;10.90;99.90
35563;DHT22;21665;40.108;18.302;2023-04-12T21:30:15;10.90;99.90
35563;DHT22;21665;40.108;18.302;2023-04-12T21:32:53;10.90;99.90
35563;DHT22;21665;40.108;18.302;2023-04-12T21:35:19;10.90;99.90
35563;DHT22;21665;40.108;18.302;2023-04-12T21:37:47;10.90;99.90
35563;DHT22;21665;40.108;18.302;2023-04-12T21:40:17;10.80;99.90
35563;DHT22;21665;40.108;18.302;2023-04-12T21:42:46;10.70;99.90
35563;DHT22;21665;40.108;18.302;2023-04-12T21:45:13;10.70;99.90
35563;DHT22;21665;40.108;18.302;2023-04-12T21:47:43;10.80;99.90
35563;DHT22;21665;40.108;18.302;2023-04-12T21:50:12;10.70;99.90
35563;DHT22;21665;40.108;18.302;2023-04-12T21:52:42;10.60;99.90
35563;DHT22;21665;40.108;18.302;2023-04-12T21:55:10;10.60;99.90
35563;DHT22;21665;40.108;18.302;2023-04-12T21:57:37;10.70;99.90
35563;DHT22;21665;40.108;18.302;2023-04-12T22:00:04;10.70;99.90
35563;DHT22;21665;40.108;18.302;2023-04-12T22:02:38;10.70;99.90
35563;DHT22;21665;40.108;18.302;2023-04-12T22:05:04;10.70;99.90
35563;DHT22;21665;40.108;18.302;2023-04-12T22:07:31;10.70;99.90
35563;DHT22;21665;40.108;18.302;2023-04-12T22:10:09;10.70;99.90
35563;DHT22;21665;40.108;18.302;2023-04-12T22:12:37;10.70;99.90
35563;DHT22;21665;40.108;18.302;2023-04-12T22:15:04;10.70;99.90
35563;DHT22;21665;40.108;18.302;2023-04-12T22:17:31;10.70;99.90
35563;DHT22;21665;40.108;18.302;2023-04-12T22:19:58;10.70;99.90
35563;DHT22;21665;40.108;18.302;2023-04-12T22:22:25;10.60;99.90
35563;DHT22;21665;40.108;18.302;2023-04-12T22:24:56;10.60;99.90
35563;DHT22;21665;40.108;18.302;2023-04-12T22:27:23;10.50;99.90
35563;DHT22;21665;40.108;18.302;2023-04-12T22:29:51;10.60;99.90
35563;DHT22;21665;40.108;18.302;2023-04-12T22:32:21;10.50;99.90
35563;DHT22;21665;40.108;18.302;2023-04-12T22:34:49;10.50;99.90
35563;DHT22;21665;40.108;18.302;2023-04-12T22:37:16;10.50;99.90
35563;DHT22;21665;40.108;18.302;2023-04-12T22:39:42;10.40;99.90
35563;DHT22;21665;40.108;18.302;2023-04-12T22:42:12;10.30;99.90
35563;DHT22;21665;40.108;18.302;2023-04-12T22:44:38;10.30;99.90
35563;DHT22;21665;40.108;18.302;2023-04-12T22:47:05;10.10;99.90
35563;DHT22;21665;40.108;18.302;2023-04-12T22:49:43;10.10;99.90
35563;DHT22;21665;40.108;18.302;2023-04-12T22:52:10;10.10;99.90
35563;DHT22;21665;40.108;18.302;2023-04-12T22:54:38;10.10;99.90
35563;DHT22;21665;40.108;18.302;2023-04-12T22:57:05;10.00;99.90
35563;DHT22;21665;40.108;18.302;2023-04-12T22:59:31;10.00;99.90
35563;DHT22;21665;40.108;18.302;2023-04-12T23:01:58;10.00;99.90
35563;DHT22;21665;40.108;18.302;2023-04-12T23:04:24;10.10;99.90
35563;DHT22;21665;40.108;18.302;2023-04-12T23:06:52;10.10;99.90
35563;DHT22;21665;40.108;18.302;2023-04-12T23:09:22;10.10;99.90
35563;DHT22;21665;40.108;18.302;2023-04-12T23:11:48;10.00;99.90
35563;DHT22;21665;40.108;18.302;2023-04-12T23:14:16;10.00;99.90
35563;DHT22;21665;40.108;18.302;2023-04-12T23:16:43;10.10;99.90
35563;DHT22;21665;40.108;18.302;2023-04-12T23:19:12;10.10;99.90
35563;DHT22;21665;40.108;18.302;2023-04-12T23:21:40;10.00;99.90
35563;DHT22;21665;40.108;18.302;2023-04-12T23:24:07;10.00;99.90
35563;DHT22;21665;40.108;18.302;2023-04-12T23:26:33;9.90;99.90
35563;DHT22;21665;40.108;18.302;2023-04-12T23:29:02;9.90;99.90
35563;DHT22;21665;40.108;18.302;2023-04-12T23:31:29;9.90;99.90
35563;DHT22;21665;40.108;18.302;2023-04-12T23:33:58;9.80;99.90
35563;DHT22;21665;40.108;18.302;2023-04-12T23:36:29;9.80;99.90
35563;DHT22;21665;40.108;18.302;2023-04-12T23:38:55;9.90;99.90
35563;DHT22;21665;40.108;18.302;2023-04-12T23:41:25;9.90;99.90
35563;DHT22;21665;40.108;18.302;2023-04-12T23:43:52;10.00;99.90
35563;DHT22;21665;40.108;18.302;2023-04-12T23:46:20;9.90;99.90
35563;DHT22;21665;40.108;18.302;2023-04-12T23:48:47;10.00;99.90
35563;DHT22;21665;40.108;18.302;2023-04-12T23:51:14;10.00;99.90
35563;DHT22;21665;40.108;18.302;2023-04-12T23:53:44;10.00;99.90
35563;DHT22;21665;40.108;18.302;2023-04-12T23:56:11;10.00;99.90
35563;DHT22;21665;40.108;18.302;2023-04-12T23:58:38;9.90;99.90
